sensor_id;sensor_type;location;lat;lon;timestamp;P1;durP1;ratioP1;P2;durP2;ratioP2
59468;SDS011;45277;52.768;18.262;2024-01-06T00:01:11;19.75;;;10.05;;
59468;SDS011;45277;52.768;18.262;2024-01-06T00:02:47;19.45;;;11.48;;
59468;SDS011;45277;52.768;18.262;2024-01-06T00:04:19;19.00;;;11.25;;
59468;SDS011;45277;52.768;18.262;2024-01-06T00:05:51;23.60;;;12.18;;
59468;SDS011;45277;52.768;18.262;2024-01-06T00:07:23;22.70;;;11.65;;
59468;SDS011;45277;52.768;18.262;2024-01-06T00:08:54;22.25;;;11.48;;
59468;SDS011;45277;52.768;18.262;2024-01-06T00:10:26;22.08;;;12.07;;
59468;SDS011;45277;52.768;18.262;2024-01-06T00:11:57;22.67;;;11.85;;
59468;SDS011;45277;52.768;18.262;2024-01-06T00:13:29;20.75;;;11.02;;
59468;SDS011;45277;52.768;18.262;2024-01-06T00:15:01;22.25;;;11.70;;
59468;SDS011;45277;52.768;18.262;2024-01-06T00:16:32;20.52;;;11.10;;
59468;SDS011;45277;52.768;18.262;2024-01-06T00:18:04;21.70;;;11.63;;
59468;SDS011;45277;52.768;18.262;2024-01-06T00:19:36;18.65;;;10.82;;
59468;SDS011;45277;52.768;18.262;2024-01-06T00:21:07;18.95;;;11.02;;
59468;SDS011;45277;52.768;18.262;2024-01-06T00:22:39;21.27;;;11.90;;
59468;SDS011;45277;52.768;18.262;2024-01-06T00:24:12;23.85;;;12.65;;
59468;SDS011;45277;52.768;18.262;2024-01-06T00:25:43;19.88;;;10.75;;
59468;SDS011;45277;52.768;18.262;2024-01-06T00:27:15;24.02;;;12.05;;
59468;SDS011;45277;52.768;18.262;2024-01-06T00:28:47;19.65;;;11.70;;
59468;SDS011;45277;52.768;18.262;2024-01-06T00:30:19;22.70;;;13.00;;
59468;SDS011;45277;52.768;18.262;2024-01-06T00:31:51;23.25;;;12.98;;
59468;SDS011;45277;52.768;18.262;2024-01-06T00:33:22;22.92;;;12.70;;
59468;SDS011;45277;52.768;18.262;2024-01-06T00:34:54;27.00;;;13.10;;
59468;SDS011;45277;52.768;18.262;2024-01-06T00:36:25;26.50;;;13.13;;
59468;SDS011;45277;52.768;18.262;2024-01-06T00:37:57;21.23;;;13.48;;
59468;SDS011;45277;52.768;18.262;2024-01-06T00:39:31;21.15;;;13.30;;
59468;SDS011;45277;52.768;18.262;2024-01-06T00:41:02;20.92;;;12.30;;
59468;SDS011;45277;52.768;18.262;2024-01-06T00:42:34;21.33;;;13.23;;
59468;SDS011;45277;52.768;18.262;2024-01-06T00:44:05;24.08;;;12.32;;
59468;SDS011;45277;52.768;18.262;2024-01-06T00:45:37;25.80;;;12.32;;
59468;SDS011;45277;52.768;18.262;2024-01-06T00:47:09;20.02;;;11.05;;
59468;SDS011;45277;52.768;18.262;2024-01-06T00:48:40;21.75;;;12.23;;
59468;SDS011;45277;52.768;18.262;2024-01-06T00:50:12;22.77;;;12.93;;
59468;SDS011;45277;52.768;18.262;2024-01-06T00:51:44;21.70;;;12.00;;
59468;SDS011;45277;52.768;18.262;2024-01-06T00:53:15;18.70;;;11.05;;
59468;SDS011;45277;52.768;18.262;2024-01-06T00:54:47;20.85;;;11.77;;
59468;SDS011;45277;52.768;18.262;2024-01-06T00:56:18;18.83;;;12.07;;
59468;SDS011;45277;52.768;18.262;2024-01-06T00:57:50;21.83;;;13.32;;
59468;SDS011;45277;52.768;18.262;2024-01-06T00:59:21;22.33;;;12.05;;
59468;SDS011;45277;52.768;18.262;2024-01-06T01:00:53;23.30;;;12.88;;
59468;SDS011;45277;52.768;18.262;2024-01-06T01:02:24;21.10;;;12.52;;
59468;SDS011;45277;52.768;18.262;2024-01-06T01:03:55;23.98;;;12.90;;
59468;SDS011;45277;52.768;18.262;2024-01-06T01:05:27;22.73;;;12.55;;
59468;SDS011;45277;52.768;18.262;2024-01-06T01:06:58;21.85;;;11.98;;
59468;SDS011;45277;52.768;18.262;2024-01-06T01:08:29;22.70;;;12.75;;
59468;SDS011;45277;52.768;18.262;2024-01-06T01:10:01;21.80;;;12.63;;
59468;SDS011;45277;52.768;18.262;2024-01-06T01:11:33;20.70;;;12.25;;
59468;SDS011;45277;52.768;18.262;2024-01-06T01:13:04;26.52;;;12.88;;
59468;SDS011;45277;52.768;18.262;2024-01-06T01:14:35;20.65;;;12.32;;
59468;SDS011;45277;52.768;18.262;2024-01-06T01:16:07;20.38;;;12.73;;
59468;SDS011;45277;52.768;18.262;2024-01-06T01:17:38;24.25;;;13.00;;
59468;SDS011;45277;52.768;18.262;2024-01-06T01:19:10;25.17;;;13.15;;
59468;SDS011;45277;52.768;18.262;2024-01-06T01:20:41;23.83;;;14.15;;
59468;SDS011;45277;52.768;18.262;2024-01-06T01:22:12;23.65;;;12.95;;
59468;SDS011;45277;52.768;18.262;2024-01-06T01:23:44;20.48;;;12.77;;
59468;SDS011;45277;52.768;18.262;2024-01-06T01:25:16;24.77;;;12.98;;
59468;SDS011;45277;52.768;18.262;2024-01-06T01:26:47;21.23;;;12.15;;
59468;SDS011;45277;52.768;18.262;2024-01-06T01:28:19;22.33;;;13.55;;
59468;SDS011;45277;52.768;18.262;2024-01-06T01:29:50;21.50;;;14.20;;
59468;SDS011;45277;52.768;18.262;2024-01-06T01:31:23;26.67;;;13.82;;
59468;SDS011;45277;52.768;18.262;2024-01-06T01:32:54;25.55;;;11.55;;
59468;SDS011;45277;52.768;18.262;2024-01-06T01:34:25;22.48;;;12.32;;
59468;SDS011;45277;52.768;18.262;2024-01-06T01:35:57;21.60;;;12.57;;
59468;SDS011;45277;52.768;18.262;2024-01-06T01:37:28;20.63;;;11.88;;
59468;SDS011;45277;52.768;18.262;2024-01-06T01:38:59;22.05;;;13.27;;
59468;SDS011;45277;52.768;18.262;2024-01-06T01:40:31;22.63;;;12.20;;
59468;SDS011;45277;52.768;18.262;2024-01-06T01:42:02;23.20;;;13.02;;
59468;SDS011;45277;52.768;18.262;2024-01-06T01:43:34;20.15;;;12.43;;
59468;SDS011;45277;52.768;18.262;2024-01-06T01:45:05;25.80;;;13.43;;
59468;SDS011;45277;52.768;18.262;2024-01-06T01:46:37;22.70;;;14.80;;
59468;SDS011;45277;52.768;18.262;2024-01-06T01:48:09;23.50;;;13.68;;
59468;SDS011;45277;52.768;18.262;2024-01-06T01:49:41;25.95;;;14.02;;
59468;SDS011;45277;52.768;18.262;2024-01-06T01:51:12;24.80;;;14.32;;
59468;SDS011;45277;52.768;18.262;2024-01-06T01:52:44;23.13;;;14.07;;
59468;SDS011;45277;52.768;18.262;2024-01-06T01:54:15;23.65;;;14.27;;
59468;SDS011;45277;52.768;18.262;2024-01-06T01:55:47;23.08;;;13.73;;
59468;SDS011;45277;52.768;18.262;2024-01-06T01:57:20;24.63;;;13.60;;
59468;SDS011;45277;52.768;18.262;2024-01-06T01:58:54;24.40;;;14.25;;
59468;SDS011;45277;52.768;18.262;2024-01-06T02:00:27;23.40;;;14.05;;
59468;SDS011;45277;52.768;18.262;2024-01-06T02:01:58;22.83;;;14.77;;
59468;SDS011;45277;52.768;18.262;2024-01-06T02:03:30;24.33;;;13.68;;
59468;SDS011;45277;52.768;18.262;2024-01-06T02:05:02;22.90;;;12.98;;
59468;SDS011;45277;52.768;18.262;2024-01-06T02:06:33;24.27;;;14.88;;
59468;SDS011;45277;52.768;18.262;2024-01-06T02:08:05;25.90;;;13.63;;
59468;SDS011;45277;52.768;18.262;2024-01-06T02:09:36;23.90;;;14.52;;
59468;SDS011;45277;52.768;18.262;2024-01-06T02:11:08;23.30;;;13.50;;
59468;SDS011;45277;52.768;18.262;2024-01-06T02:12:39;27.02;;;13.23;;
59468;SDS011;45277;52.768;18.262;2024-01-06T02:14:11;24.45;;;13.80;;
59468;SDS011;45277;52.768;18.262;2024-01-06T02:15:42;23.95;;;14.18;;
59468;SDS011;45277;52.768;18.262;2024-01-06T02:17:13;25.23;;;14.65;;
59468;SDS011;45277;52.768;18.262;2024-01-06T02:18:45;22.02;;;12.80;;
59468;SDS011;45277;52.768;18.262;2024-01-06T02:20:17;20.80;;;12.32;;
59468;SDS011;45277;52.768;18.262;2024-01-06T02:21:53;22.08;;;13.50;;
59468;SDS011;45277;52.768;18.262;2024-01-06T02:23:25;21.48;;;12.85;;
59468;SDS011;45277;52.768;18.262;2024-01-06T02:24:57;24.27;;;14.00;;
59468;SDS011;45277;52.768;18.262;2024-01-06T02:26:28;24.40;;;13.82;;
59468;SDS011;45277;52.768;18.262;2024-01-06T02:28:00;25.30;;;14.65;;
59468;SDS011;45277;52.768;18.262;2024-01-06T02:29:31;30.33;;;15.82;;
59468;SDS011;45277;52.768;18.262;2024-01-06T02:31:03;22.90;;;14.23;;
59468;SDS011;45277;52.768;18.262;2024-01-06T02:32:34;24.73;;;14.75;;
59468;SDS011;45277;52.768;18.262;2024-01-06T02:34:05;26.58;;;15.55;;
59468;SDS011;45277;52.768;18.262;2024-01-06T02:35:37;24.02;;;14.32;;
59468;SDS011;45277;52.768;18.262;2024-01-06T02:37:08;20.77;;;12.50;;
59468;SDS011;45277;52.768;18.262;2024-01-06T02:38:39;21.10;;;13.27;;
59468;SDS011;45277;52.768;18.262;2024-01-06T02:40:11;24.80;;;13.25;;
59468;SDS011;45277;52.768;18.262;2024-01-06T02:41:43;23.50;;;13.30;;
59468;SDS011;45277;52.768;18.262;2024-01-06T02:43:14;22.40;;;13.50;;
59468;SDS011;45277;52.768;18.262;2024-01-06T02:44:45;25.30;;;14.02;;
59468;SDS011;45277;52.768;18.262;2024-01-06T02:46:17;26.85;;;13.55;;
59468;SDS011;45277;52.768;18.262;2024-01-06T02:47:48;24.83;;;14.80;;
59468;SDS011;45277;52.768;18.262;2024-01-06T02:49:19;24.02;;;15.18;;
59468;SDS011;45277;52.768;18.262;2024-01-06T02:50:51;29.20;;;15.93;;
59468;SDS011;45277;52.768;18.262;2024-01-06T02:52:22;30.70;;;16.95;;
59468;SDS011;45277;52.768;18.262;2024-01-06T02:53:53;28.23;;;16.80;;
59468;SDS011;45277;52.768;18.262;2024-01-06T02:55:25;31.50;;;17.58;;
59468;SDS011;45277;52.768;18.262;2024-01-06T02:56:56;28.65;;;16.45;;
59468;SDS011;45277;52.768;18.262;2024-01-06T02:58:27;31.85;;;17.73;;
59468;SDS011;45277;52.768;18.262;2024-01-06T02:59:59;32.88;;;17.77;;
59468;SDS011;45277;52.768;18.262;2024-01-06T03:01:31;26.88;;;16.83;;
59468;SDS011;45277;52.768;18.262;2024-01-06T03:03:02;26.70;;;14.68;;
59468;SDS011;45277;52.768;18.262;2024-01-06T03:04:34;26.65;;;14.85;;
59468;SDS011;45277;52.768;18.262;2024-01-06T03:06:05;26.77;;;15.43;;
59468;SDS011;45277;52.768;18.262;2024-01-06T03:07:37;27.00;;;16.23;;
59468;SDS011;45277;52.768;18.262;2024-01-06T03:09:08;27.05;;;14.25;;
59468;SDS011;45277;52.768;18.262;2024-01-06T03:10:39;25.35;;;13.88;;
59468;SDS011;45277;52.768;18.262;2024-01-06T03:12:11;23.05;;;14.43;;
59468;SDS011;45277;52.768;18.262;2024-01-06T03:13:42;23.25;;;14.38;;
59468;SDS011;45277;52.768;18.262;2024-01-06T03:15:13;26.98;;;14.80;;
59468;SDS011;45277;52.768;18.262;2024-01-06T03:16:45;24.88;;;14.43;;
59468;SDS011;45277;52.768;18.262;2024-01-06T03:18:16;24.50;;;14.35;;
59468;SDS011;45277;52.768;18.262;2024-01-06T03:19:47;24.25;;;14.45;;
59468;SDS011;45277;52.768;18.262;2024-01-06T03:21:19;22.63;;;14.32;;
59468;SDS011;45277;52.768;18.262;2024-01-06T03:22:51;25.08;;;14.50;;
59468;SDS011;45277;52.768;18.262;2024-01-06T03:24:22;23.20;;;13.18;;
59468;SDS011;45277;52.768;18.262;2024-01-06T03:25:55;24.77;;;14.52;;
59468;SDS011;45277;52.768;18.262;2024-01-06T03:27:26;27.48;;;14.13;;
59468;SDS011;45277;52.768;18.262;2024-01-06T03:28:58;26.45;;;14.27;;
59468;SDS011;45277;52.768;18.262;2024-01-06T03:30:29;25.05;;;14.30;;
59468;SDS011;45277;52.768;18.262;2024-01-06T03:32:01;25.02;;;14.43;;
59468;SDS011;45277;52.768;18.262;2024-01-06T03:33:32;22.85;;;12.55;;
59468;SDS011;45277;52.768;18.262;2024-01-06T03:35:03;23.98;;;13.48;;
59468;SDS011;45277;52.768;18.262;2024-01-06T03:36:37;27.40;;;14.38;;
59468;SDS011;45277;52.768;18.262;2024-01-06T03:38:09;22.63;;;13.00;;
59468;SDS011;45277;52.768;18.262;2024-01-06T03:39:40;24.50;;;13.85;;
59468;SDS011;45277;52.768;18.262;2024-01-06T03:41:12;22.48;;;14.23;;
59468;SDS011;45277;52.768;18.262;2024-01-06T03:42:43;25.33;;;13.88;;
59468;SDS011;45277;52.768;18.262;2024-01-06T03:44:14;24.30;;;13.73;;
59468;SDS011;45277;52.768;18.262;2024-01-06T03:45:46;25.08;;;14.95;;
59468;SDS011;45277;52.768;18.262;2024-01-06T03:47:17;24.40;;;14.82;;
59468;SDS011;45277;52.768;18.262;2024-01-06T03:48:49;27.67;;;14.60;;
59468;SDS011;45277;52.768;18.262;2024-01-06T03:50:20;29.38;;;16.23;;
59468;SDS011;45277;52.768;18.262;2024-01-06T03:51:52;30.27;;;17.10;;
59468;SDS011;45277;52.768;18.262;2024-01-06T03:53:23;30.40;;;16.20;;
59468;SDS011;45277;52.768;18.262;2024-01-06T03:54:55;29.85;;;16.23;;
59468;SDS011;45277;52.768;18.262;2024-01-06T03:56:26;27.48;;;15.65;;
59468;SDS011;45277;52.768;18.262;2024-01-06T03:57:57;25.52;;;13.02;;
59468;SDS011;45277;52.768;18.262;2024-01-06T03:59:29;25.63;;;14.88;;
59468;SDS011;45277;52.768;18.262;2024-01-06T04:01:00;26.35;;;14.77;;
59468;SDS011;45277;52.768;18.262;2024-01-06T04:02:31;27.05;;;14.82;;
59468;SDS011;45277;52.768;18.262;2024-01-06T04:04:03;25.70;;;14.60;;
59468;SDS011;45277;52.768;18.262;2024-01-06T04:05:34;24.45;;;14.20;;
59468;SDS011;45277;52.768;18.262;2024-01-06T04:07:05;23.60;;;14.00;;
59468;SDS011;45277;52.768;18.262;2024-01-06T04:08:39;28.25;;;14.27;;
59468;SDS011;45277;52.768;18.262;2024-01-06T04:10:13;24.17;;;13.45;;
59468;SDS011;45277;52.768;18.262;2024-01-06T04:11:44;26.95;;;13.32;;
59468;SDS011;45277;52.768;18.262;2024-01-06T04:13:16;24.98;;;13.43;;
59468;SDS011;45277;52.768;18.262;2024-01-06T04:14:47;21.58;;;13.15;;
59468;SDS011;45277;52.768;18.262;2024-01-06T04:16:19;25.58;;;14.10;;
59468;SDS011;45277;52.768;18.262;2024-01-06T04:17:50;25.90;;;13.68;;
59468;SDS011;45277;52.768;18.262;2024-01-06T04:19:23;23.30;;;13.85;;
59468;SDS011;45277;52.768;18.262;2024-01-06T04:20:54;26.80;;;14.68;;
59468;SDS011;45277;52.768;18.262;2024-01-06T04:22:25;25.05;;;14.52;;
59468;SDS011;45277;52.768;18.262;2024-01-06T04:23:57;28.52;;;14.73;;
59468;SDS011;45277;52.768;18.262;2024-01-06T04:25:28;28.42;;;14.63;;
59468;SDS011;45277;52.768;18.262;2024-01-06T04:26:59;23.90;;;13.77;;
59468;SDS011;45277;52.768;18.262;2024-01-06T04:28:31;23.75;;;15.00;;
59468;SDS011;45277;52.768;18.262;2024-01-06T04:30:02;24.35;;;14.73;;
59468;SDS011;45277;52.768;18.262;2024-01-06T04:31:34;27.83;;;15.98;;
59468;SDS011;45277;52.768;18.262;2024-01-06T04:33:05;26.25;;;14.57;;
59468;SDS011;45277;52.768;18.262;2024-01-06T04:34:37;24.90;;;14.10;;
59468;SDS011;45277;52.768;18.262;2024-01-06T04:36:09;25.00;;;14.20;;
59468;SDS011;45277;52.768;18.262;2024-01-06T04:37:40;26.02;;;14.30;;
59468;SDS011;45277;52.768;18.262;2024-01-06T04:39:11;25.13;;;14.00;;
59468;SDS011;45277;52.768;18.262;2024-01-06T04:40:44;25.00;;;14.10;;
59468;SDS011;45277;52.768;18.262;2024-01-06T04:42:15;24.45;;;14.43;;
59468;SDS011;45277;52.768;18.262;2024-01-06T04:43:46;24.13;;;13.80;;
59468;SDS011;45277;52.768;18.262;2024-01-06T04:45:18;21.05;;;12.52;;
59468;SDS011;45277;52.768;18.262;2024-01-06T04:46:50;22.77;;;13.70;;
59468;SDS011;45277;52.768;18.262;2024-01-06T04:48:21;22.20;;;12.77;;
59468;SDS011;45277;52.768;18.262;2024-01-06T04:49:52;22.92;;;13.52;;
59468;SDS011;45277;52.768;18.262;2024-01-06T04:51:24;24.40;;;13.95;;
59468;SDS011;45277;52.768;18.262;2024-01-06T04:52:55;24.17;;;13.25;;
59468;SDS011;45277;52.768;18.262;2024-01-06T04:54:27;25.15;;;13.00;;
59468;SDS011;45277;52.768;18.262;2024-01-06T04:55:58;27.92;;;14.43;;
59468;SDS011;45277;52.768;18.262;2024-01-06T04:57:29;25.50;;;13.90;;
59468;SDS011;45277;52.768;18.262;2024-01-06T04:59:01;25.02;;;13.48;;
59468;SDS011;45277;52.768;18.262;2024-01-06T05:00:32;28.15;;;15.20;;
59468;SDS011;45277;52.768;18.262;2024-01-06T05:02:06;28.63;;;14.65;;
59468;SDS011;45277;52.768;18.262;2024-01-06T05:03:38;26.13;;;14.00;;
59468;SDS011;45277;52.768;18.262;2024-01-06T05:05:09;24.35;;;12.43;;
59468;SDS011;45277;52.768;18.262;2024-01-06T05:06:40;24.83;;;13.07;;
59468;SDS011;45277;52.768;18.262;2024-01-06T05:08:12;19.50;;;12.23;;
59468;SDS011;45277;52.768;18.262;2024-01-06T05:09:43;22.05;;;12.88;;
59468;SDS011;45277;52.768;18.262;2024-01-06T05:11:14;24.75;;;13.23;;
59468;SDS011;45277;52.768;18.262;2024-01-06T05:12:46;26.23;;;13.23;;
59468;SDS011;45277;52.768;18.262;2024-01-06T05:14:17;24.35;;;13.48;;
59468;SDS011;45277;52.768;18.262;2024-01-06T05:15:48;24.85;;;13.63;;
59468;SDS011;45277;52.768;18.262;2024-01-06T05:17:20;23.95;;;13.57;;
59468;SDS011;45277;52.768;18.262;2024-01-06T05:18:51;23.13;;;13.00;;
59468;SDS011;45277;52.768;18.262;2024-01-06T05:20:22;20.40;;;12.23;;
59468;SDS011;45277;52.768;18.262;2024-01-06T05:21:54;21.38;;;13.07;;
59468;SDS011;45277;52.768;18.262;2024-01-06T05:23:26;21.65;;;11.88;;
59468;SDS011;45277;52.768;18.262;2024-01-06T05:24:57;21.80;;;12.73;;
59468;SDS011;45277;52.768;18.262;2024-01-06T05:26:28;21.25;;;12.57;;
59468;SDS011;45277;52.768;18.262;2024-01-06T05:28:00;20.45;;;11.55;;
59468;SDS011;45277;52.768;18.262;2024-01-06T05:29:31;19.95;;;11.80;;
59468;SDS011;45277;52.768;18.262;2024-01-06T05:31:03;20.83;;;11.82;;
59468;SDS011;45277;52.768;18.262;2024-01-06T05:32:34;22.55;;;12.48;;
59468;SDS011;45277;52.768;18.262;2024-01-06T05:34:05;24.95;;;13.15;;
59468;SDS011;45277;52.768;18.262;2024-01-06T05:35:37;23.48;;;12.30;;
59468;SDS011;45277;52.768;18.262;2024-01-06T05:37:08;26.77;;;12.75;;
59468;SDS011;45277;52.768;18.262;2024-01-06T05:38:39;22.50;;;12.45;;
59468;SDS011;45277;52.768;18.262;2024-01-06T05:40:11;23.55;;;12.95;;
59468;SDS011;45277;52.768;18.262;2024-01-06T05:41:42;22.00;;;12.00;;
59468;SDS011;45277;52.768;18.262;2024-01-06T05:43:17;23.35;;;12.23;;
59468;SDS011;45277;52.768;18.262;2024-01-06T05:44:48;21.23;;;11.75;;
59468;SDS011;45277;52.768;18.262;2024-01-06T05:46:20;16.85;;;9.90;;
59468;SDS011;45277;52.768;18.262;2024-01-06T05:47:52;18.77;;;10.90;;
59468;SDS011;45277;52.768;18.262;2024-01-06T05:49:24;20.23;;;11.52;;
59468;SDS011;45277;52.768;18.262;2024-01-06T05:50:55;20.33;;;12.18;;
59468;SDS011;45277;52.768;18.262;2024-01-06T05:52:26;20.17;;;11.95;;
59468;SDS011;45277;52.768;18.262;2024-01-06T05:53:58;21.33;;;11.48;;
59468;SDS011;45277;52.768;18.262;2024-01-06T05:55:29;17.92;;;11.38;;
59468;SDS011;45277;52.768;18.262;2024-01-06T05:57:00;19.65;;;11.40;;
59468;SDS011;45277;52.768;18.262;2024-01-06T05:58:32;21.27;;;10.65;;
59468;SDS011;45277;52.768;18.262;2024-01-06T06:00:03;18.20;;;11.55;;
59468;SDS011;45277;52.768;18.262;2024-01-06T06:01:38;20.58;;;11.60;;
59468;SDS011;45277;52.768;18.262;2024-01-06T06:03:10;19.40;;;11.98;;
59468;SDS011;45277;52.768;18.262;2024-01-06T06:04:41;23.17;;;11.73;;
59468;SDS011;45277;52.768;18.262;2024-01-06T06:06:12;22.83;;;13.35;;
59468;SDS011;45277;52.768;18.262;2024-01-06T06:07:44;22.55;;;12.88;;
59468;SDS011;45277;52.768;18.262;2024-01-06T06:09:15;20.92;;;12.50;;
59468;SDS011;45277;52.768;18.262;2024-01-06T06:10:46;20.88;;;12.77;;
59468;SDS011;45277;52.768;18.262;2024-01-06T06:12:32;22.83;;;12.50;;
59468;SDS011;45277;52.768;18.262;2024-01-06T06:14:03;23.33;;;13.23;;
59468;SDS011;45277;52.768;18.262;2024-01-06T06:15:35;19.88;;;12.13;;
59468;SDS011;45277;52.768;18.262;2024-01-06T06:17:06;20.63;;;11.73;;
59468;SDS011;45277;52.768;18.262;2024-01-06T06:18:38;19.83;;;10.35;;
59468;SDS011;45277;52.768;18.262;2024-01-06T06:20:10;19.27;;;11.57;;
59468;SDS011;45277;52.768;18.262;2024-01-06T06:21:41;18.30;;;10.68;;
59468;SDS011;45277;52.768;18.262;2024-01-06T06:23:12;19.85;;;11.85;;
59468;SDS011;45277;52.768;18.262;2024-01-06T06:24:44;20.80;;;11.60;;
59468;SDS011;45277;52.768;18.262;2024-01-06T06:26:15;23.27;;;13.00;;
59468;SDS011;45277;52.768;18.262;2024-01-06T06:27:47;18.98;;;10.98;;
59468;SDS011;45277;52.768;18.262;2024-01-06T06:29:18;19.30;;;11.57;;
59468;SDS011;45277;52.768;18.262;2024-01-06T06:30:51;17.13;;;9.40;;
59468;SDS011;45277;52.768;18.262;2024-01-06T06:32:22;19.92;;;11.32;;
59468;SDS011;45277;52.768;18.262;2024-01-06T06:33:54;20.42;;;11.15;;
59468;SDS011;45277;52.768;18.262;2024-01-06T06:35:25;17.33;;;11.75;;
59468;SDS011;45277;52.768;18.262;2024-01-06T06:36:56;18.27;;;10.05;;
59468;SDS011;45277;52.768;18.262;2024-01-06T06:38:29;22.60;;;12.98;;
59468;SDS011;45277;52.768;18.262;2024-01-06T06:40:01;19.23;;;11.32;;
59468;SDS011;45277;52.768;18.262;2024-01-06T06:41:33;19.20;;;11.32;;
59468;SDS011;45277;52.768;18.262;2024-01-06T06:43:04;18.58;;;10.50;;
59468;SDS011;45277;52.768;18.262;2024-01-06T06:44:36;18.00;;;10.98;;
59468;SDS011;45277;52.768;18.262;2024-01-06T06:46:08;19.40;;;11.13;;
59468;SDS011;45277;52.768;18.262;2024-01-06T06:47:39;16.77;;;10.63;;
59468;SDS011;45277;52.768;18.262;2024-01-06T06:49:11;21.80;;;11.88;;
59468;SDS011;45277;52.768;18.262;2024-01-06T06:50:42;20.08;;;11.80;;
59468;SDS011;45277;52.768;18.262;2024-01-06T06:52:14;20.88;;;11.77;;
59468;SDS011;45277;52.768;18.262;2024-01-06T06:53:45;18.88;;;10.52;;
59468;SDS011;45277;52.768;18.262;2024-01-06T06:55:17;18.00;;;10.35;;
59468;SDS011;45277;52.768;18.262;2024-01-06T06:56:48;19.85;;;11.55;;
59468;SDS011;45277;52.768;18.262;2024-01-06T06:58:19;19.67;;;11.85;;
59468;SDS011;45277;52.768;18.262;2024-01-06T06:59:51;18.88;;;11.52;;
59468;SDS011;45277;52.768;18.262;2024-01-06T07:01:22;20.95;;;11.85;;
59468;SDS011;45277;52.768;18.262;2024-01-06T07:02:54;19.77;;;11.90;;
59468;SDS011;45277;52.768;18.262;2024-01-06T07:04:25;21.67;;;11.65;;
59468;SDS011;45277;52.768;18.262;2024-01-06T07:05:57;18.65;;;10.93;;
59468;SDS011;45277;52.768;18.262;2024-01-06T07:07:29;19.50;;;11.10;;
59468;SDS011;45277;52.768;18.262;2024-01-06T07:09:00;20.52;;;12.00;;
59468;SDS011;45277;52.768;18.262;2024-01-06T07:10:31;18.13;;;11.32;;
59468;SDS011;45277;52.768;18.262;2024-01-06T07:12:03;19.80;;;10.95;;
59468;SDS011;45277;52.768;18.262;2024-01-06T07:13:35;19.98;;;11.23;;
59468;SDS011;45277;52.768;18.262;2024-01-06T07:15:06;18.38;;;10.65;;
59468;SDS011;45277;52.768;18.262;2024-01-06T07:16:40;19.92;;;10.88;;
59468;SDS011;45277;52.768;18.262;2024-01-06T07:18:12;15.70;;;9.55;;
59468;SDS011;45277;52.768;18.262;2024-01-06T07:19:43;21.55;;;10.05;;
59468;SDS011;45277;52.768;18.262;2024-01-06T07:21:15;16.60;;;10.00;;
59468;SDS011;45277;52.768;18.262;2024-01-06T07:22:46;18.83;;;10.52;;
59468;SDS011;45277;52.768;18.262;2024-01-06T07:24:18;15.98;;;10.25;;
59468;SDS011;45277;52.768;18.262;2024-01-06T07:25:49;17.02;;;10.63;;
59468;SDS011;45277;52.768;18.262;2024-01-06T07:27:21;15.98;;;9.55;;
59468;SDS011;45277;52.768;18.262;2024-01-06T07:28:52;20.08;;;10.25;;
59468;SDS011;45277;52.768;18.262;2024-01-06T07:30:24;16.80;;;9.38;;
59468;SDS011;45277;52.768;18.262;2024-01-06T07:31:55;14.95;;;8.90;;
59468;SDS011;45277;52.768;18.262;2024-01-06T07:33:27;19.40;;;9.93;;
59468;SDS011;45277;52.768;18.262;2024-01-06T07:34:58;15.52;;;10.00;;
59468;SDS011;45277;52.768;18.262;2024-01-06T07:36:29;15.40;;;9.70;;
59468;SDS011;45277;52.768;18.262;2024-01-06T07:38:01;17.30;;;9.63;;
59468;SDS011;45277;52.768;18.262;2024-01-06T07:39:32;16.13;;;9.52;;
59468;SDS011;45277;52.768;18.262;2024-01-06T07:41:04;18.65;;;9.18;;
59468;SDS011;45277;52.768;18.262;2024-01-06T07:42:35;14.00;;;8.80;;
59468;SDS011;45277;52.768;18.262;2024-01-06T07:44:06;14.38;;;9.13;;
59468;SDS011;45277;52.768;18.262;2024-01-06T07:45:38;16.83;;;9.30;;
59468;SDS011;45277;52.768;18.262;2024-01-06T07:47:10;13.35;;;8.57;;
59468;SDS011;45277;52.768;18.262;2024-01-06T07:48:41;14.25;;;7.97;;
59468;SDS011;45277;52.768;18.262;2024-01-06T07:50:12;18.05;;;8.32;;
59468;SDS011;45277;52.768;18.262;2024-01-06T07:51:44;12.90;;;7.82;;
59468;SDS011;45277;52.768;18.262;2024-01-06T07:53:15;12.45;;;7.68;;
59468;SDS011;45277;52.768;18.262;2024-01-06T07:54:47;13.25;;;7.97;;
59468;SDS011;45277;52.768;18.262;2024-01-06T07:56:19;12.63;;;8.40;;
59468;SDS011;45277;52.768;18.262;2024-01-06T07:57:51;14.32;;;8.27;;
59468;SDS011;45277;52.768;18.262;2024-01-06T07:59:22;17.10;;;9.75;;
59468;SDS011;45277;52.768;18.262;2024-01-06T08:00:54;16.52;;;9.27;;
59468;SDS011;45277;52.768;18.262;2024-01-06T08:02:26;14.90;;;8.95;;
59468;SDS011;45277;52.768;18.262;2024-01-06T08:03:58;14.82;;;9.00;;
59468;SDS011;45277;52.768;18.262;2024-01-06T08:05:29;17.50;;;9.43;;
59468;SDS011;45277;52.768;18.262;2024-01-06T08:07:01;16.52;;;8.50;;
59468;SDS011;45277;52.768;18.262;2024-01-06T08:08:32;12.30;;;6.80;;
59468;SDS011;45277;52.768;18.262;2024-01-06T08:10:03;13.75;;;7.95;;
59468;SDS011;45277;52.768;18.262;2024-01-06T08:11:36;14.10;;;7.25;;
59468;SDS011;45277;52.768;18.262;2024-01-06T08:13:07;12.43;;;8.30;;
59468;SDS011;45277;52.768;18.262;2024-01-06T08:14:39;11.73;;;7.28;;
59468;SDS011;45277;52.768;18.262;2024-01-06T08:16:10;10.35;;;6.32;;
59468;SDS011;45277;52.768;18.262;2024-01-06T08:17:41;10.48;;;7.13;;
59468;SDS011;45277;52.768;18.262;2024-01-06T08:19:13;12.05;;;6.95;;
59468;SDS011;45277;52.768;18.262;2024-01-06T08:20:45;13.18;;;6.97;;
59468;SDS011;45277;52.768;18.262;2024-01-06T08:22:17;13.15;;;7.60;;
59468;SDS011;45277;52.768;18.262;2024-01-06T08:23:48;13.38;;;7.78;;
59468;SDS011;45277;52.768;18.262;2024-01-06T08:25:20;13.95;;;7.65;;
59468;SDS011;45277;52.768;18.262;2024-01-06T08:26:51;11.93;;;7.18;;
59468;SDS011;45277;52.768;18.262;2024-01-06T08:28:22;13.48;;;7.63;;
59468;SDS011;45277;52.768;18.262;2024-01-06T08:29:54;11.65;;;7.00;;
59468;SDS011;45277;52.768;18.262;2024-01-06T08:31:26;13.30;;;7.50;;
59468;SDS011;45277;52.768;18.262;2024-01-06T08:32:58;11.57;;;6.10;;
59468;SDS011;45277;52.768;18.262;2024-01-06T08:34:30;15.00;;;8.00;;
59468;SDS011;45277;52.768;18.262;2024-01-06T08:36:02;19.23;;;9.30;;
59468;SDS011;45277;52.768;18.262;2024-01-06T08:37:34;13.02;;;7.28;;
59468;SDS011;45277;52.768;18.262;2024-01-06T08:39:05;14.90;;;7.28;;
59468;SDS011;45277;52.768;18.262;2024-01-06T08:40:39;12.50;;;7.82;;
59468;SDS011;45277;52.768;18.262;2024-01-06T08:42:10;12.13;;;6.93;;
59468;SDS011;45277;52.768;18.262;2024-01-06T08:43:42;11.45;;;6.07;;
59468;SDS011;45277;52.768;18.262;2024-01-06T08:45:13;12.63;;;6.95;;
59468;SDS011;45277;52.768;18.262;2024-01-06T08:46:44;11.98;;;6.13;;
59468;SDS011;45277;52.768;18.262;2024-01-06T08:48:16;7.93;;;5.90;;
59468;SDS011;45277;52.768;18.262;2024-01-06T08:49:48;13.93;;;8.27;;